createdAt,value
2018-10-07T00:00:47.937Z,7.9
2018-10-07T00:01:49.481Z,7.9
2018-10-07T00:02:50.870Z,7.9
2018-10-07T00:03:52.416Z,7.9
2018-10-07T00:04:53.959Z,7.9
2018-10-07T00:05:55.373Z,7.9
2018-10-07T00:06:56.919Z,7.9
2018-10-07T00:07:58.303Z,7.9
2018-10-07T00:08:59.843Z,7.9
2018-10-07T00:10:01.402Z,7.9
2018-10-07T00:11:02.952Z,7.9
2018-10-07T00:12:04.487Z,7.9
2018-10-07T00:13:06.030Z,7.9
2018-10-07T00:14:07.585Z,7.9
2018-10-07T00:15:08.970Z,7.9
2018-10-07T00:16:10.524Z,7.9
2018-10-07T00:17:12.088Z,7.9
2018-10-07T00:18:13.476Z,7.9
2018-10-07T00:19:14.857Z,7.9
2018-10-07T00:20:16.245Z,7.9
2018-10-07T00:21:17.774Z,7.9
2018-10-07T00:22:19.311Z,7.9
2018-10-07T00:23:20.895Z,7.9
2018-10-07T00:24:22.427Z,7.9
2018-10-07T00:25:23.983Z,7.9
2018-10-07T00:26:25.366Z,7.9
2018-10-07T00:27:26.918Z,7.9
2018-10-07T00:28:28.463Z,7.9
2018-10-07T00:29:29.839Z,7.9
2018-10-07T00:30:31.225Z,7.9
2018-10-07T00:31:32.599Z,7.9
2018-10-07T00:32:34.154Z,7.9
2018-10-07T00:33:35.726Z,7.8
2018-10-07T00:34:37.274Z,7.8
2018-10-07T00:35:38.828Z,7.8
2018-10-07T00:36:40.434Z,7.8
2018-10-07T00:37:41.968Z,7.8
2018-10-07T00:38:43.524Z,7.8
2018-10-07T00:39:45.073Z,7.9
2018-10-07T00:40:46.453Z,7.8
2018-10-07T00:41:48.011Z,7.8
2018-10-07T00:42:49.555Z,7.9
2018-10-07T00:43:50.781Z,7.9
2018-10-07T00:44:52.326Z,7.9
2018-10-07T00:45:53.906Z,7.9
2018-10-07T00:46:55.856Z,7.9
2018-10-07T00:47:57.241Z,7.9
2018-10-07T00:48:58.633Z,7.9
2018-10-07T00:50:00.179Z,7.8
2018-10-07T00:51:01.559Z,7.9
2018-10-07T00:52:03.102Z,7.8
2018-10-07T00:53:04.651Z,7.8
2018-10-07T00:54:06.200Z,7.9
2018-10-07T00:55:07.742Z,7.9
2018-10-07T00:56:09.319Z,7.9
2018-10-07T00:57:10.870Z,7.9
2018-10-07T00:58:12.242Z,7.8
2018-10-07T00:59:13.780Z,7.8
2018-10-07T01:00:15.319Z,7.8
2018-10-07T01:01:16.537Z,7.8
2018-10-07T01:02:18.100Z,7.8
2018-10-07T01:03:19.693Z,7.8
2018-10-07T01:04:21.247Z,7.8
2018-10-07T01:05:22.636Z,7.8
2018-10-07T01:06:23.700Z,7.8
2018-10-07T01:07:25.252Z,7.8
2018-10-07T01:08:26.639Z,7.9
2018-10-07T01:09:28.198Z,7.9
2018-10-07T01:10:29.752Z,7.9
2018-10-07T01:11:31.124Z,7.9
2018-10-07T01:12:32.686Z,7.8
2018-10-07T01:13:34.223Z,7.8
2018-10-07T01:14:35.789Z,7.8
2018-10-07T01:15:37.181Z,7.8
2018-10-07T01:16:38.737Z,7.8
2018-10-07T01:17:40.279Z,7.8
2018-10-07T01:18:41.824Z,7.8
2018-10-07T01:19:43.216Z,7.8
2018-10-07T01:20:44.759Z,7.8
2018-10-07T01:21:46.123Z,7.8
2018-10-07T01:22:47.672Z,7.8
2018-10-07T01:23:49.207Z,7.7
2018-10-07T01:24:50.761Z,7.6
2018-10-07T01:25:52.140Z,7.5
2018-10-07T01:26:53.677Z,7.4
2018-10-07T01:27:55.230Z,7.2
2018-10-07T01:28:56.598Z,7.2
2018-10-07T01:29:57.985Z,7.2
2018-10-07T01:30:59.519Z,7.1
2018-10-07T01:32:01.114Z,7.1
2018-10-07T01:33:02.493Z,7.1
2018-10-07T01:34:04.038Z,7.1
2018-10-07T01:35:05.280Z,7.1
2018-10-07T01:36:06.847Z,7.1
2018-10-07T01:37:08.391Z,7.1
2018-10-07T01:38:09.774Z,7.2
2018-10-07T01:39:11.342Z,7.1
2018-10-07T01:40:12.889Z,7.1
2018-10-07T01:41:14.282Z,7.1
2018-10-07T01:42:15.833Z,7.1
2018-10-07T01:43:17.205Z,7.1
2018-10-07T01:44:18.749Z,7.2
2018-10-07T01:45:20.290Z,7.2
2018-10-07T01:46:21.802Z,7.2
2018-10-07T01:47:23.353Z,7.2
2018-10-07T01:48:24.891Z,7.2
2018-10-07T01:49:26.292Z,7.2
2018-10-07T01:50:27.841Z,7.1
2018-10-07T01:51:29.370Z,7.2
2018-10-07T01:52:30.908Z,7.2
2018-10-07T01:53:32.453Z,7.2
2018-10-07T01:54:34.008Z,7.2
2018-10-07T01:55:35.411Z,7.2
2018-10-07T01:56:36.951Z,7.2
2018-10-07T01:57:38.509Z,7.2
2018-10-07T01:58:40.051Z,7.2
2018-10-07T01:59:41.419Z,7.2
2018-10-07T02:00:42.847Z,7.2
2018-10-07T02:01:44.401Z,7.2
2018-10-07T02:02:45.942Z,7.2
2018-10-07T02:03:47.486Z,7.2
2018-10-07T02:04:49.039Z,7.2
2018-10-07T02:05:50.419Z,7.2
2018-10-07T02:06:51.809Z,7.2
2018-10-07T02:07:53.169Z,7.2
2018-10-07T02:08:54.709Z,7.2
2018-10-07T02:09:56.257Z,7.2
2018-10-07T02:10:57.787Z,7.2
2018-10-07T02:11:59.349Z,7.2
2018-10-07T02:13:00.401Z,7.2
2018-10-07T02:14:02.872Z,7.2
2018-10-07T02:15:04.466Z,7.2
2018-10-07T02:16:06.015Z,7.2
2018-10-07T02:17:07.712Z,7.2
2018-10-07T02:18:09.292Z,7.2
2018-10-07T02:19:10.869Z,7.2
2018-10-07T02:20:12.422Z,7.2
2018-10-07T02:21:13.800Z,7.2
2018-10-07T02:22:15.339Z,7.2
2018-10-07T02:23:16.562Z,7.2
2018-10-07T02:24:18.099Z,7.2
2018-10-07T02:25:19.327Z,7.2
2018-10-07T02:26:20.860Z,7.2
2018-10-07T02:27:22.417Z,7.2
2018-10-07T02:28:23.962Z,7.2
2018-10-07T02:29:25.533Z,7.2
2018-10-07T02:30:27.148Z,7.3
2018-10-07T02:31:28.368Z,7.3
2018-10-07T02:32:29.762Z,7.3
2018-10-07T02:33:31.302Z,7.3
2018-10-07T02:34:32.874Z,7.4
2018-10-07T02:35:34.453Z,7.4
2018-10-07T02:36:35.989Z,7.4
2018-10-07T02:37:37.548Z,7.5
2018-10-07T02:38:39.089Z,7.6
2018-10-07T02:39:40.313Z,7.6
2018-10-07T02:40:41.701Z,7.7
2018-10-07T02:41:43.252Z,7.8
2018-10-07T02:42:44.847Z,7.9
2018-10-07T02:43:46.389Z,7.9
2018-10-07T02:44:47.911Z,7.9
2018-10-07T02:45:49.462Z,7.9
2018-10-07T02:46:51.020Z,7.9
2018-10-07T02:47:52.422Z,7.9
2018-10-07T02:48:53.665Z,7.9
2018-10-07T02:49:55.233Z,7.9
2018-10-07T02:50:56.789Z,7.8
2018-10-07T02:51:58.151Z,7.9
2018-10-07T02:52:59.695Z,7.9
2018-10-07T02:54:01.255Z,7.9
2018-10-07T02:55:02.816Z,7.9
2018-10-07T02:56:04.201Z,7.9
2018-10-07T02:57:05.759Z,7.9
2018-10-07T02:58:07.322Z,7.9
2018-10-07T02:59:08.878Z,7.9
2018-10-07T03:00:10.251Z,7.9
2018-10-07T03:01:11.652Z,7.9
2018-10-07T03:02:13.242Z,7.9
2018-10-07T03:03:14.777Z,7.9
2018-10-07T03:04:16.164Z,7.9
2018-10-07T03:05:17.637Z,7.9
2018-10-07T03:06:19.047Z,7.9
2018-10-07T03:07:20.652Z,7.9
2018-10-07T03:08:22.039Z,7.9
2018-10-07T03:09:23.277Z,7.9
2018-10-07T03:10:24.826Z,7.9
2018-10-07T03:11:26.352Z,7.9
2018-10-07T03:12:27.917Z,7.9
2018-10-07T03:13:29.136Z,7.9
2018-10-07T03:14:30.677Z,7.9
2018-10-07T03:15:32.064Z,7.9
2018-10-07T03:16:33.615Z,7.9
2018-10-07T03:17:35.167Z,7.3
2018-10-07T03:18:36.773Z,7.3
2018-10-07T03:19:38.313Z,7.4
2018-10-07T03:20:39.839Z,7.3
2018-10-07T03:21:41.418Z,7.3
2018-10-07T03:22:42.956Z,7.2
2018-10-07T03:23:44.508Z,7.2
2018-10-07T03:24:46.065Z,7.2
2018-10-07T03:25:47.599Z,7.2
2018-10-07T03:26:48.986Z,7.2
2018-10-07T03:27:50.522Z,7.2
2018-10-07T03:28:52.075Z,7.2
2018-10-07T03:29:53.640Z,7.2
2018-10-07T03:30:55.210Z,7.2
2018-10-07T03:31:56.772Z,7.2
2018-10-07T03:32:58.137Z,7.1
2018-10-07T03:33:59.693Z,7.1
2018-10-07T03:35:01.239Z,7.2
2018-10-07T03:36:02.821Z,7.2
2018-10-07T03:37:04.220Z,7.1
2018-10-07T03:38:05.609Z,7.2
2018-10-07T03:39:06.825Z,7.2
2018-10-07T03:40:08.391Z,7.2
2018-10-07T03:41:09.775Z,7.2
2018-10-07T03:42:11.309Z,7.2
2018-10-07T03:43:12.869Z,7.2
2018-10-07T03:44:14.430Z,7.2
2018-10-07T03:45:15.989Z,7.2
2018-10-07T03:46:17.543Z,7.2
2018-10-07T03:47:19.089Z,7.2
2018-10-07T03:48:20.464Z,7.2
2018-10-07T03:49:22.011Z,7.2
2018-10-07T03:50:23.560Z,7.2
2018-10-07T03:51:25.096Z,7.2
2018-10-07T03:52:26.648Z,7.2
2018-10-07T03:53:28.017Z,7.2
2018-10-07T03:54:29.560Z,7.2
2018-10-07T03:55:31.155Z,7.2
2018-10-07T03:56:32.704Z,7.2
2018-10-07T03:57:34.091Z,7.2
2018-10-07T03:58:35.652Z,7.2
2018-10-07T03:59:37.214Z,7.2
2018-10-07T04:00:38.763Z,7.3
2018-10-07T04:01:40.159Z,7.3
2018-10-07T04:02:41.532Z,7.4
2018-10-07T04:03:43.062Z,7.5
2018-10-07T04:04:44.430Z,7.6
2018-10-07T04:05:45.821Z,7.7
2018-10-07T04:06:47.216Z,7.8
2018-10-07T04:07:48.776Z,7.9
2018-10-07T04:08:50.339Z,7.9
2018-10-07T04:09:51.711Z,7.9
2018-10-07T04:10:52.930Z,7.9
2018-10-07T04:11:54.305Z,7.9
2018-10-07T04:12:55.853Z,7.9
2018-10-07T04:13:57.600Z,7.9
2018-10-07T04:14:59.134Z,7.9
2018-10-07T04:16:00.684Z,7.9
2018-10-07T04:17:02.240Z,7.9
2018-10-07T04:18:03.820Z,7.9
2018-10-07T04:19:05.373Z,7.9
2018-10-07T04:20:06.912Z,7.9
2018-10-07T04:21:08.480Z,7.9
2018-10-07T04:22:10.053Z,7.9
2018-10-07T04:23:11.588Z,7.9
2018-10-07T04:24:12.973Z,7.9
2018-10-07T04:25:14.505Z,7.9
2018-10-07T04:26:16.048Z,7.9
2018-10-07T04:27:17.590Z,7.9
2018-10-07T04:28:19.126Z,7.9
2018-10-07T04:29:20.686Z,7.8
2018-10-07T04:30:22.238Z,7.9
2018-10-07T04:31:23.782Z,7.9
2018-10-07T04:32:24.991Z,7.9
2018-10-07T04:33:26.535Z,7.9
2018-10-07T04:34:28.120Z,7.9
2018-10-07T04:35:29.679Z,7.9
2018-10-07T04:36:31.080Z,7.9
2018-10-07T04:37:32.619Z,7.9
2018-10-07T04:38:34.187Z,7.9
2018-10-07T04:39:35.807Z,7.9
2018-10-07T04:40:37.190Z,7.9
2018-10-07T04:41:38.740Z,7.9
2018-10-07T04:42:40.284Z,7.9
2018-10-07T04:43:41.828Z,7.9
2018-10-07T04:44:43.386Z,7.9
2018-10-07T04:45:44.789Z,7.9
2018-10-07T04:46:46.393Z,7.9
2018-10-07T04:47:47.958Z,7.2
2018-10-07T04:48:49.009Z,7.3
2018-10-07T04:49:50.390Z,7.4
2018-10-07T04:50:51.780Z,7.5
2018-10-07T04:51:53.022Z,7.6
2018-10-07T04:52:54.556Z,7.7
2018-10-07T04:53:55.971Z,7.7
2018-10-07T04:54:57.514Z,7.8
2018-10-07T04:55:59.056Z,7.8
2018-10-07T04:57:00.658Z,7.8
2018-10-07T04:58:02.057Z,7.8
2018-10-07T04:59:03.659Z,7.8
2018-10-07T05:00:05.620Z,7.8
2018-10-07T05:01:07.016Z,7.9
2018-10-07T05:02:08.561Z,7.9
2018-10-07T05:03:10.131Z,7.9
2018-10-07T05:04:11.340Z,7.9
2018-10-07T05:05:12.909Z,7.9
2018-10-07T05:06:14.456Z,7.9
2018-10-07T05:07:16.015Z,7.9
2018-10-07T05:08:17.574Z,7.9
2018-10-07T05:09:19.148Z,7.9
2018-10-07T05:10:20.722Z,7.9
2018-10-07T05:11:22.275Z,7.8
2018-10-07T05:12:24.132Z,7.8
2018-10-07T05:13:25.510Z,7.8
2018-10-07T05:14:27.062Z,7.8
2018-10-07T05:15:28.653Z,7.8
2018-10-07T05:16:30.062Z,7.7
2018-10-07T05:17:31.656Z,7.7
2018-10-07T05:18:33.283Z,7.8
2018-10-07T05:19:34.871Z,7.8
2018-10-07T05:20:36.452Z,7.8
2018-10-07T05:21:37.888Z,7.8
2018-10-07T05:22:39.458Z,7.8
2018-10-07T05:23:40.869Z,7.8
2018-10-07T05:24:42.271Z,7.7
2018-10-07T05:25:43.830Z,7.6
2018-10-07T05:26:45.400Z,7.5
2018-10-07T05:27:46.993Z,7.4
2018-10-07T05:28:48.554Z,7.2
2018-10-07T05:29:50.161Z,7.2
2018-10-07T05:30:51.737Z,7.2
2018-10-07T05:32:08.205Z,7.2
2018-10-07T05:33:10.157Z,7.2
2018-10-07T05:34:11.561Z,7.2
2018-10-07T05:35:13.100Z,7.2
2018-10-07T05:36:14.644Z,7.2
2018-10-07T05:37:16.039Z,7.1
2018-10-07T05:38:17.589Z,7.1
2018-10-07T05:39:19.220Z,7.2
2018-10-07T05:40:20.462Z,7.1
2018-10-07T05:41:22.024Z,7.2
2018-10-07T05:42:23.582Z,7.1
2018-10-07T05:43:25.340Z,7.2
2018-10-07T05:44:28.032Z,7.2
2018-10-07T05:45:29.440Z,7.2
2018-10-07T05:46:30.999Z,7.2
2018-10-07T05:47:32.545Z,7.2
2018-10-07T05:48:34.107Z,7.2
2018-10-07T05:49:35.649Z,7.2
2018-10-07T05:50:37.193Z,7.2
2018-10-07T05:51:38.954Z,7.2
2018-10-07T05:52:40.524Z,7.2
2018-10-07T05:53:42.091Z,7.2
2018-10-07T05:54:43.661Z,7.2
2018-10-07T05:55:45.982Z,7.2
2018-10-07T05:56:47.400Z,7.2
2018-10-07T05:57:48.973Z,7.2
2018-10-07T05:58:50.394Z,7.2
2018-10-07T05:59:51.941Z,7.2
2018-10-07T06:00:53.533Z,7.2
2018-10-07T06:01:56.175Z,7.2
2018-10-07T06:02:57.599Z,7.2
2018-10-07T06:03:59.161Z,7.2
2018-10-07T06:05:00.777Z,7.2
2018-10-07T06:06:02.326Z,7.2
2018-10-07T06:07:03.881Z,7.2
2018-10-07T06:08:05.435Z,7.2
2018-10-07T06:09:07.006Z,7.2
2018-10-07T06:10:08.401Z,7.2
2018-10-07T06:11:09.952Z,7.2
2018-10-07T06:12:11.513Z,7.2
2018-10-07T06:13:13.062Z,7.2
2018-10-07T06:14:14.617Z,7.3
2018-10-07T06:15:16.025Z,7.3
2018-10-07T06:16:17.434Z,7.3
2018-10-07T06:17:19.033Z,7.3
2018-10-07T06:18:20.604Z,7.4
2018-10-07T06:19:21.995Z,7.4
2018-10-07T06:20:23.561Z,7.5
2018-10-07T06:21:25.419Z,7.5
2018-10-07T06:22:26.820Z,7.6
2018-10-07T06:23:28.386Z,7.6
2018-10-07T06:24:29.789Z,7.7
2018-10-07T06:25:31.361Z,7.8
2018-10-07T06:26:33.071Z,7.8
2018-10-07T06:27:34.508Z,7.8
2018-10-07T06:28:35.910Z,7.9
2018-10-07T06:29:37.685Z,7.9
2018-10-07T06:30:38.911Z,7.9
2018-10-07T06:31:40.453Z,7.9
2018-10-07T06:32:42.054Z,7.9
2018-10-07T06:33:43.656Z,7.9
2018-10-07T06:34:45.053Z,7.9
2018-10-07T06:35:46.592Z,7.9
2018-10-07T06:36:48.163Z,7.9
2018-10-07T06:37:49.727Z,7.9
2018-10-07T06:38:51.971Z,7.9
2018-10-07T06:39:53.920Z,7.9
2018-10-07T06:40:55.550Z,7.9
2018-10-07T06:41:56.960Z,7.9
2018-10-07T06:42:58.506Z,7.9
2018-10-07T06:44:00.087Z,7.9
2018-10-07T06:45:01.456Z,7.9
2018-10-07T06:46:02.705Z,7.9
2018-10-07T06:47:04.283Z,7.9
2018-10-07T06:48:05.839Z,7.9
2018-10-07T06:49:07.402Z,7.9
2018-10-07T06:50:08.956Z,7.9
2018-10-07T06:51:10.519Z,7.9
2018-10-07T06:52:11.901Z,7.9
2018-10-07T06:53:13.355Z,7.9
2018-10-07T06:54:14.905Z,7.9
2018-10-07T06:55:16.466Z,7.9
2018-10-07T06:56:17.861Z,7.9
2018-10-07T06:57:19.406Z,7.9
2018-10-07T06:58:20.973Z,7.9
2018-10-07T06:59:22.542Z,7.9
2018-10-07T07:00:24.099Z,7.9
2018-10-07T07:01:25.508Z,7.9
2018-10-07T07:02:27.078Z,7.9
2018-10-07T07:03:28.642Z,7.9
2018-10-07T07:04:30.191Z,7.9
2018-10-07T07:05:31.742Z,7.9
2018-10-07T07:06:34.263Z,7.9
2018-10-07T07:07:35.875Z,7.9
2018-10-07T07:08:37.423Z,7.9
2018-10-07T07:09:38.976Z,7.9
2018-10-07T07:10:40.547Z,7.9
2018-10-07T07:11:41.946Z,7.8
2018-10-07T07:12:43.509Z,7.8
2018-10-07T07:13:44.757Z,7.8
2018-10-07T07:14:46.135Z,7.8
2018-10-07T07:15:47.533Z,7.8
2018-10-07T07:16:49.098Z,7.8
2018-10-07T07:17:50.334Z,7.8
2018-10-07T07:18:51.735Z,7.7
2018-10-07T07:19:54.215Z,7.6
2018-10-07T07:20:55.870Z,7.5
2018-10-07T07:21:57.127Z,7.4
2018-10-07T07:22:58.712Z,7.3
2018-10-07T07:24:00.301Z,7.2
2018-10-07T07:25:01.720Z,7.2
2018-10-07T07:26:03.113Z,7.2
2018-10-07T07:27:04.665Z,7.2
2018-10-07T07:28:06.241Z,7.2
2018-10-07T07:29:07.792Z,7.2
2018-10-07T07:30:09.180Z,7.2
2018-10-07T07:31:10.763Z,7.2
2018-10-07T07:32:12.319Z,7.2
2018-10-07T07:33:13.889Z,7.2
2018-10-07T07:34:15.443Z,7.2
2018-10-07T07:35:16.853Z,7.2
2018-10-07T07:36:18.408Z,7.2
2018-10-07T07:37:19.986Z,7.2
2018-10-07T07:38:21.380Z,7.2
2018-10-07T07:39:22.971Z,7.2
2018-10-07T07:40:24.381Z,7.2
2018-10-07T07:41:25.938Z,7.2
2018-10-07T07:42:28.132Z,7.2
2018-10-07T07:43:29.587Z,7.2
2018-10-07T07:44:31.153Z,7.2
2018-10-07T07:45:32.724Z,7.2
2018-10-07T07:46:34.310Z,7.2
2018-10-07T07:47:35.708Z,7.2
2018-10-07T07:48:36.920Z,7.2
2018-10-07T07:49:38.485Z,7.2
2018-10-07T07:50:39.767Z,7.2
2018-10-07T07:51:41.164Z,7.2
2018-10-07T07:52:42.700Z,7.2
2018-10-07T07:53:44.280Z,7.2
2018-10-07T07:54:45.682Z,7.2
2018-10-07T07:55:47.252Z,7.2
2018-10-07T07:56:48.506Z,7.2
2018-10-07T07:57:49.734Z,7.2
2018-10-07T07:58:51.301Z,7.2
2018-10-07T07:59:52.868Z,7.2
2018-10-07T08:00:54.416Z,7.3
2018-10-07T08:01:55.813Z,7.3
2018-10-07T08:02:57.372Z,7.3
2018-10-07T08:03:58.931Z,7.3
2018-10-07T08:05:00.328Z,7.3
2018-10-07T08:06:01.741Z,7.4
2018-10-07T08:07:03.301Z,7.4
2018-10-07T08:08:04.716Z,7.4
2018-10-07T08:09:05.957Z,7.4
2018-10-07T08:10:07.534Z,7.4
2018-10-07T08:11:09.092Z,7.4
2018-10-07T08:12:10.666Z,7.5
2018-10-07T08:13:12.252Z,7.5
2018-10-07T08:14:13.804Z,7.5
2018-10-07T08:15:15.347Z,7.6
2018-10-07T08:16:16.767Z,7.6
2018-10-07T08:17:18.375Z,7.6
2018-10-07T08:18:20.010Z,7.7
2018-10-07T08:19:21.599Z,7.7
2018-10-07T08:20:23.160Z,7.8
2018-10-07T08:21:24.578Z,7.8
2018-10-07T08:22:25.987Z,7.8
2018-10-07T08:23:27.508Z,7.9
2018-10-07T08:24:28.978Z,7.9
2018-10-07T08:25:30.544Z,7.9
2018-10-07T08:26:32.128Z,7.9
2018-10-07T08:27:33.560Z,7.9
2018-10-07T08:28:34.973Z,7.9
2018-10-07T08:29:36.370Z,7.9
2018-10-07T08:30:38.002Z,7.9
2018-10-07T08:31:39.615Z,7.9
2018-10-07T08:32:41.036Z,7.9
2018-10-07T08:33:42.426Z,7.9
2018-10-07T08:34:43.820Z,7.9
2018-10-07T08:35:45.383Z,7.9
2018-10-07T08:36:46.956Z,7.9
2018-10-07T08:37:48.550Z,7.9
2018-10-07T08:38:50.305Z,7.9
2018-10-07T08:39:51.919Z,7.9
2018-10-07T08:40:53.320Z,7.9
2018-10-07T08:41:54.883Z,7.9
2018-10-07T08:42:56.321Z,7.9
2018-10-07T08:43:57.888Z,7.9
2018-10-07T08:44:59.459Z,7.9
2018-10-07T08:46:01.013Z,7.9
2018-10-07T08:47:02.569Z,7.9
2018-10-07T08:48:04.134Z,7.9
2018-10-07T08:49:05.681Z,7.9
2018-10-07T08:50:06.902Z,7.9
2018-10-07T08:51:08.458Z,7.9
2018-10-07T08:52:10.010Z,7.9
2018-10-07T08:53:11.259Z,7.9
2018-10-07T08:54:12.817Z,7.9
2018-10-07T08:55:14.042Z,7.9
2018-10-07T08:56:15.975Z,7.9
2018-10-07T08:57:17.394Z,7.9
2018-10-07T08:58:18.940Z,7.9
2018-10-07T08:59:20.490Z,7.9
2018-10-07T09:00:21.887Z,7.9
2018-10-07T09:01:23.464Z,7.8
2018-10-07T09:02:25.034Z,7.8
2018-10-07T09:03:26.623Z,7.7
2018-10-07T09:04:28.186Z,7.6
2018-10-07T09:05:29.771Z,7.5
2018-10-07T09:06:31.335Z,7.4
2018-10-07T09:07:33.043Z,7.3
2018-10-07T09:08:34.657Z,7.2
2018-10-07T09:09:36.224Z,7.2
2018-10-07T09:10:37.773Z,7.2
2018-10-07T09:11:39.338Z,7.2
2018-10-07T09:12:40.904Z,7.2
2018-10-07T09:13:42.496Z,7.2
2018-10-07T09:14:44.461Z,7.2
2018-10-07T09:15:45.920Z,7.2
2018-10-07T09:16:47.520Z,7.2
2018-10-07T09:17:49.110Z,7.2
2018-10-07T09:18:50.522Z,7.2
2018-10-07T09:19:51.910Z,7.2
2018-10-07T09:20:53.400Z,7.2
2018-10-07T09:21:54.785Z,7.2
2018-10-07T09:22:56.356Z,7.2
2018-10-07T09:23:57.945Z,7.2
2018-10-07T09:24:59.515Z,7.2
2018-10-07T09:26:01.086Z,7.2
2018-10-07T09:27:17.963Z,7.2
2018-10-07T09:28:19.581Z,7.2
2018-10-07T09:29:20.983Z,7.2
2018-10-07T09:30:22.552Z,7.2
2018-10-07T09:31:24.137Z,7.2
2018-10-07T09:32:26.333Z,7.2
2018-10-07T09:33:27.989Z,7.2
2018-10-07T09:34:29.550Z,7.2
2018-10-07T09:35:30.963Z,7.2
2018-10-07T09:36:32.591Z,7.2
2018-10-07T09:37:34.364Z,7.2
2018-10-07T09:38:35.774Z,7.2
2018-10-07T09:39:37.610Z,7.2
2018-10-07T09:40:39.164Z,7.2
2018-10-07T09:41:40.723Z,7.2
2018-10-07T09:42:42.284Z,7.2
2018-10-07T09:43:43.878Z,7.2
2018-10-07T09:44:45.452Z,7.2
2018-10-07T09:45:46.860Z,7.2
2018-10-07T09:46:48.424Z,7.2
2018-10-07T09:47:49.670Z,7.2
2018-10-07T09:48:51.243Z,7.2
2018-10-07T09:49:52.802Z,7.3
2018-10-07T09:50:54.376Z,7.3
2018-10-07T09:51:55.945Z,7.3
2018-10-07T09:52:57.334Z,7.3
2018-10-07T09:53:58.907Z,7.3
2018-10-07T09:55:00.314Z,7.4
2018-10-07T09:56:01.720Z,7.4
2018-10-07T09:57:03.298Z,7.4
2018-10-07T09:58:05.431Z,7.4
2018-10-07T09:59:07.082Z,7.5
2018-10-07T10:00:08.706Z,7.5
2018-10-07T10:01:10.618Z,7.6
2018-10-07T10:02:12.075Z,7.7
2018-10-07T10:03:13.466Z,7.7
2018-10-07T10:04:16.061Z,7.8
2018-10-07T10:05:17.742Z,7.8
2018-10-07T10:06:19.331Z,7.9
2018-10-07T10:07:20.927Z,7.9
2018-10-07T10:08:22.517Z,7.9
2018-10-07T10:09:24.103Z,7.9
2018-10-07T10:10:25.666Z,7.9
2018-10-07T10:11:27.596Z,7.9
2018-10-07T10:12:29.144Z,7.9
2018-10-07T10:13:30.704Z,7.9
2018-10-07T10:14:32.296Z,7.9
2018-10-07T10:15:33.890Z,7.9
2018-10-07T10:16:35.596Z,7.9
2018-10-07T10:17:37.771Z,7.9
2018-10-07T10:18:39.486Z,7.9
2018-10-07T10:19:41.437Z,7.9
2018-10-07T10:20:43.008Z,7.9
2018-10-07T10:21:44.590Z,7.9
2018-10-07T10:22:46.146Z,7.9
2018-10-07T10:23:47.747Z,7.9
2018-10-07T10:24:49.357Z,7.9
2018-10-07T10:25:50.739Z,7.9
2018-10-07T10:26:52.305Z,7.9
2018-10-07T10:27:53.849Z,7.9
2018-10-07T10:28:55.409Z,7.9
2018-10-07T10:29:56.969Z,7.9
2018-10-07T10:30:58.365Z,7.9
2018-10-07T10:31:59.929Z,7.9
2018-10-07T10:33:01.516Z,7.9
2018-10-07T10:34:02.948Z,7.9
2018-10-07T10:35:04.601Z,7.9
2018-10-07T10:36:06.172Z,7.9
2018-10-07T10:37:07.586Z,7.9
2018-10-07T10:38:09.042Z,7.9
2018-10-07T10:39:10.477Z,7.9
2018-10-07T10:40:12.250Z,7.9
2018-10-07T10:41:13.829Z,7.2
2018-10-07T10:42:15.399Z,7.3
2018-10-07T10:43:16.956Z,7.3
2018-10-07T10:44:18.545Z,7.3
2018-10-07T10:45:20.236Z,7.2
2018-10-07T10:46:21.931Z,7.2
2018-10-07T10:47:23.509Z,7.2
2018-10-07T10:48:25.078Z,7.2
2018-10-07T10:49:26.654Z,7.2
2018-10-07T10:50:28.085Z,7.2
2018-10-07T10:51:29.672Z,7.2
2018-10-07T10:52:31.094Z,7.2
2018-10-07T10:53:32.697Z,7.2
2018-10-07T10:54:34.262Z,7.2
2018-10-07T10:55:35.662Z,7.2
2018-10-07T10:56:37.237Z,7.2
2018-10-07T10:57:38.794Z,7.2
2018-10-07T10:58:40.362Z,7.2
2018-10-07T10:59:41.928Z,7.2
2018-10-07T11:00:43.386Z,7.2
2018-10-07T11:01:44.799Z,7.2
2018-10-07T11:02:46.375Z,7.2
2018-10-07T11:03:47.941Z,7.2
2018-10-07T11:04:49.511Z,7.2
2018-10-07T11:05:51.070Z,7.2
2018-10-07T11:06:52.665Z,7.2
2018-10-07T11:07:54.253Z,7.2
2018-10-07T11:08:55.819Z,7.2
2018-10-07T11:09:57.201Z,7.2
2018-10-07T11:10:58.774Z,7.2
2018-10-07T11:12:00.184Z,7.2
2018-10-07T11:13:01.754Z,7.2
2018-10-07T11:14:03.164Z,7.2
2018-10-07T11:15:04.573Z,7.2
2018-10-07T11:16:05.992Z,7.2
2018-10-07T11:17:07.556Z,7.2
2018-10-07T11:18:09.120Z,7.2
2018-10-07T11:19:10.669Z,7.2
2018-10-07T11:20:12.069Z,7.2
2018-10-07T11:21:13.500Z,7.2
2018-10-07T11:22:15.083Z,7.2
2018-10-07T11:23:16.649Z,7.2
2018-10-07T11:24:17.888Z,7.2
2018-10-07T11:25:19.491Z,7.2
2018-10-07T11:26:21.331Z,7.2
2018-10-07T11:27:22.903Z,7.3
2018-10-07T11:28:24.486Z,7.3
2018-10-07T11:29:26.074Z,7.3
2018-10-07T11:30:27.471Z,7.3
2018-10-07T11:31:28.860Z,7.3
2018-10-07T11:32:30.439Z,7.3
2018-10-07T11:33:31.807Z,7.3
2018-10-07T11:34:33.379Z,7.4
2018-10-07T11:35:34.951Z,7.4
2018-10-07T11:36:36.598Z,7.4
2018-10-07T11:37:38.178Z,7.5
2018-10-07T11:38:39.755Z,7.5
2018-10-07T11:39:41.013Z,7.5
2018-10-07T11:40:42.768Z,7.5
2018-10-07T11:41:44.231Z,7.5
2018-10-07T11:42:45.620Z,7.6
2018-10-07T11:43:47.019Z,7.6
2018-10-07T11:44:48.575Z,7.6
2018-10-07T11:45:50.134Z,7.7
2018-10-07T11:46:51.757Z,7.7
2018-10-07T11:47:53.204Z,7.7
2018-10-07T11:48:54.769Z,7.8
2018-10-07T11:49:56.343Z,7.8
2018-10-07T11:50:57.741Z,7.8
2018-10-07T11:51:59.139Z,7.8
2018-10-07T11:53:01.016Z,7.8
2018-10-07T11:54:02.598Z,7.9
2018-10-07T11:55:04.169Z,7.9
2018-10-07T11:56:05.592Z,7.9
2018-10-07T11:57:06.979Z,7.9
2018-10-07T11:58:08.375Z,7.9
2018-10-07T11:59:09.945Z,7.9
2018-10-07T12:00:11.345Z,7.9
2018-10-07T12:01:12.929Z,7.9
2018-10-07T12:02:14.869Z,7.9
2018-10-07T12:03:16.502Z,7.9
2018-10-07T12:04:17.906Z,7.9
2018-10-07T12:05:19.464Z,7.8
2018-10-07T12:06:21.047Z,7.8
2018-10-07T12:07:22.616Z,7.8
2018-10-07T12:08:24.231Z,7.7
2018-10-07T12:09:40.095Z,7.7
2018-10-07T12:10:41.498Z,7.6
2018-10-07T12:11:43.060Z,7.5
2018-10-07T12:12:44.621Z,7.4
2018-10-07T12:13:46.197Z,7.3
2018-10-07T12:14:47.772Z,7.3
2018-10-07T12:15:49.375Z,7.2
2018-10-07T12:16:50.594Z,7.2
2018-10-07T12:17:52.174Z,7.2
2018-10-07T12:18:53.745Z,7.2
2018-10-07T12:19:55.319Z,7.2
2018-10-07T12:20:56.712Z,7.2
2018-10-07T12:21:58.289Z,7.2
2018-10-07T12:22:59.840Z,7.2
2018-10-07T12:24:01.243Z,7.2
2018-10-07T12:25:02.808Z,7.2
2018-10-07T12:26:04.218Z,7.2
2018-10-07T12:27:05.604Z,7.2
2018-10-07T12:28:07.042Z,7.2
2018-10-07T12:29:09.383Z,7.2
2018-10-07T12:30:10.779Z,7.2
2018-10-07T12:31:12.338Z,7.2
2018-10-07T12:32:13.899Z,7.2
2018-10-07T12:33:15.491Z,7.2
2018-10-07T12:34:17.035Z,7.2
2018-10-07T12:35:18.602Z,7.2
2018-10-07T12:36:20.183Z,7.2
2018-10-07T12:37:21.758Z,7.2
2018-10-07T12:38:23.312Z,7.2
2018-10-07T12:39:24.740Z,7.2
2018-10-07T12:40:26.313Z,7.2
2018-10-07T12:41:27.889Z,7.2
2018-10-07T12:42:29.373Z,7.2
2018-10-07T12:43:30.925Z,7.2
2018-10-07T12:44:32.156Z,7.2
2018-10-07T12:45:33.567Z,7.2
2018-10-07T12:46:34.989Z,7.2
2018-10-07T12:47:36.380Z,7.2
2018-10-07T12:48:37.960Z,7.2
2018-10-07T12:49:39.517Z,7.2
2018-10-07T12:50:41.075Z,7.2
2018-10-07T12:51:42.668Z,7.2
2018-10-07T12:52:44.075Z,7.2
2018-10-07T12:53:45.642Z,7.2
2018-10-07T12:54:47.034Z,7.2
2018-10-07T12:55:48.445Z,7.2
2018-10-07T12:56:50.020Z,7.2
2018-10-07T12:57:51.597Z,7.2
2018-10-07T12:58:53.171Z,7.2
2018-10-07T12:59:54.768Z,7.2
2018-10-07T13:00:56.341Z,7.2
2018-10-07T13:01:57.924Z,7.3
2018-10-07T13:02:59.323Z,7.3
2018-10-07T13:04:00.901Z,7.3
2018-10-07T13:05:02.499Z,7.3
2018-10-07T13:06:03.956Z,7.3
2018-10-07T13:07:05.540Z,7.3
2018-10-07T13:08:07.000Z,7.4
2018-10-07T13:09:08.558Z,7.4
2018-10-07T13:10:10.119Z,7.4
2018-10-07T13:11:11.731Z,7.5
2018-10-07T13:12:13.305Z,7.5
2018-10-07T13:13:14.707Z,7.5
2018-10-07T13:14:16.094Z,7.6
2018-10-07T13:15:17.512Z,7.6
2018-10-07T13:16:19.130Z,7.7
2018-10-07T13:17:20.691Z,7.7
2018-10-07T13:18:22.092Z,7.8
2018-10-07T13:19:24.623Z,7.8
2018-10-07T13:20:26.232Z,7.8
2018-10-07T13:21:27.782Z,7.8
2018-10-07T13:22:29.011Z,7.8
2018-10-07T13:23:30.253Z,7.8
2018-10-07T13:24:31.477Z,7.9
2018-10-07T13:25:32.874Z,7.9
2018-10-07T13:26:34.298Z,7.9
2018-10-07T13:27:50.559Z,7.8
2018-10-07T13:28:52.177Z,7.8
2018-10-07T13:29:53.733Z,7.9
2018-10-07T13:30:55.293Z,7.9
2018-10-07T13:31:56.865Z,7.8
2018-10-07T13:32:58.372Z,7.9
2018-10-07T13:33:59.887Z,7.8
2018-10-07T13:35:01.504Z,7.9
2018-10-07T13:36:03.097Z,7.9
2018-10-07T13:37:04.492Z,7.9
2018-10-07T13:38:06.264Z,7.9
2018-10-07T13:39:07.858Z,7.9
2018-10-07T13:40:09.832Z,7.9
2018-10-07T13:41:11.401Z,7.9
2018-10-07T13:42:12.807Z,7.9
2018-10-07T13:43:14.200Z,7.9
2018-10-07T13:44:15.785Z,7.9
2018-10-07T13:45:17.365Z,7.9
2018-10-07T13:46:18.944Z,7.8
2018-10-07T13:47:20.340Z,7.9
2018-10-07T13:48:21.924Z,7.9
2018-10-07T13:49:23.324Z,7.9
2018-10-07T13:50:24.909Z,7.9
2018-10-07T13:51:26.475Z,7.9
2018-10-07T13:52:28.091Z,7.9
2018-10-07T13:53:30.703Z,7.9
2018-10-07T13:54:32.381Z,7.9
2018-10-07T13:55:33.794Z,7.9
2018-10-07T13:56:35.219Z,7.9
2018-10-07T13:57:36.640Z,7.9
2018-10-07T13:58:38.222Z,7.9
2018-10-07T13:59:39.796Z,7.9
2018-10-07T14:00:41.383Z,7.3
2018-10-07T14:01:42.964Z,7.4
2018-10-07T14:02:44.520Z,7.4
2018-10-07T14:03:46.433Z,7.5
2018-10-07T14:04:48.004Z,7.5
2018-10-07T14:05:49.541Z,7.5
2018-10-07T14:06:51.171Z,7.4
2018-10-07T14:07:52.730Z,7.4
2018-10-07T14:08:54.292Z,7.3